Aeroporto :
LOGIN :

Iscrizione | Disclaimer

   EN    FR    IT 

 










Sommario :    VFR   VFR Marginale   IFR   IFR Intensivo   IFR Molto Intensivo
Visibilità : 
Base nubi : 
>= 8 km
>= 3000ft
5 / 8 km
1000 / 3000 ft
1500m / 5 km
500 / 1000 ft
800 / 1500m
200 / 500 ft
< 800m
< 200 ft
Simboli :   Temporali  Nebbia  Neve Forte  Precipitazioni Forti  Vento > 20 kt
SIGMETs :   Varie  Temporali  Ghiacco  Turbolenza  Onda orograficha  Ceneri Vulcaniche







- Altitudine del aeroporto : 25 ft
- Codice IATA : QCY


EGXC - RAF Coningsby

ULTIMO METAR :
  • 200750Z 32005KT CAVOK 12/09 Q1012 BLU NOSIG

METARs OBSOLETI :
  • 200650Z 32007KT CAVOK 11/09 Q1012 BLU NOSIG
  • 200550Z 32008KT CAVOK 10/08 Q1011 BLU NOSIG

TAF TAF EGXC
Valido dal 20 a 09 ore il 21 a 03 ore UTC


200748Z 2009/2103 35008KT 9999 FEW020
TEMPO 2009/2011 SCT020
PROB30
TEMPO 2014/2018 7000 SHRA SCT020
PROB40 2100/2103 7000 HZ
Nessun NOTAM noto per questo aeroporto.
2 SIGMETs conosciuti per la FIR London (EGTT) :
 
Temporali affogati
EGTT SIGMET 02 VALID 200845/201245 EGRR
EGTT LONDON FIR EMBD TS FCST WI N5500 E00500 - N5404 E00412 - N5348 E00231 - N5500 E00231 - N5500 E00500 TOP FL280 MOV NW 10KT NC=
Temporali affogati
EGTT SIGMET 01 VALID 200445/200845 EGRR
EGTT LONDON FIR EMBD TS FCST WI N5451 E00452 - N5348 E00359 - N5348 E00259 - N5500 E00227 - N5500 E00451 - N5451 E00452 TOP FL280 MOV NNW 15KT NC=



MetMap, La meteo Aeronautica in un colpo d'occhio ! - Copyright ORBIFLY Dicembre 2007 - Disclaimer

ORBIFLY MET'MAP TEAM :

Programmazione e sviluppo : Alexandra Zaïnal
Concezione e sviluppo : Baudouin d'Aumeries
Co-Programmazione e sviluppo : Marc-Olivier Méhu
Supporto tecnico e logistico : Manuel Goepfert
Aiuto per la traduzione : Arnaldo La Scala

Contatto : metmap@orbifly.com




FONTI E CREDITI :

   NOAA